Time;durP1;ratioP1;P1;durP2;ratioP2;P2;SDS_P1;SDS_P2;PMS_P1;PMS_P2;Temp;Humidity;BMP_temperature;BMP_pressure;BME280_temperature;BME280_humidity;BME280_pressure;Samples;Min_cycle;Max_cycle;Signal;HPM_P1;HPM_P2
2022/08/17 00:00:38;;;;;;;0.00;0.00;;;;;;;17.30;100.00;99482.63;7393865;19;20018;-81
2022/08/17 00:03:09;;;;;;;0.20;0.10;;;;;;;17.31;100.00;99489.75;7396098;19;20017;-80
2022/08/17 00:05:43;;;;;;;0.10;0.10;;;;;;;17.33;100.00;99481.53;7396108;19;20045;-80
2022/08/17 00:08:13;;;;;;;4.40;0.20;;;;;;;17.32;100.00;99488.47;7397144;19;20011;-80
2022/08/17 00:10:41;;;;;;;1.65;0.35;;;;;;;17.30;100.00;99491.06;7395053;19;20047;-80
2022/08/17 00:13:14;;;;;;;0.20;0.10;;;;;;;17.27;100.00;99478.03;7392756;19;20467;-80
2022/08/17 00:15:40;;;;;;;0.70;0.17;;;;;;;17.27;100.00;99492.09;7393218;19;20025;-80
2022/08/17 00:18:06;;;;;;;1.58;0.30;;;;;;;17.23;100.00;99489.59;7394564;19;20361;-80
2022/08/17 00:20:33;;;;;;;0.77;0.15;;;;;;;17.21;100.00;99492.19;7394550;19;20025;-81
2022/08/17 00:23:03;;;;;;;0.75;0.47;;;;;;;17.19;100.00;99488.38;7393790;19;20018;-80
2022/08/17 00:25:29;;;;;;;0.25;0.22;;;;;;;17.15;100.00;99491.47;7396031;19;20135;-79
2022/08/17 00:27:55;;;;;;;0.25;0.10;;;;;;;17.12;100.00;99483.34;7395108;19;20681;-79
2022/08/17 00:30:21;;;;;;;1.67;0.43;;;;;;;17.06;100.00;99497.47;7392292;19;20347;-80
2022/08/17 00:32:49;;;;;;;0.32;0.13;;;;;;;17.01;100.00;99494.72;7393849;19;20014;-79
2022/08/17 00:35:18;;;;;;;0.10;0.10;;;;;;;17.00;100.00;99487.59;7391823;19;20018;-79
2022/08/17 00:37:44;;;;;;;0.10;0.10;;;;;;;16.93;100.00;99497.38;7393909;19;20052;-79
2022/08/17 00:40:12;;;;;;;0.35;0.20;;;;;;;16.88;100.00;99497.41;7393921;19;20018;-79
2022/08/17 00:42:38;;;;;;;0.10;0.00;;;;;;;16.87;100.00;99490.28;7392627;19;20018;-79
2022/08/17 00:45:07;;;;;;;0.10;0.00;;;;;;;16.83;100.00;99489.81;7392094;19;20031;-79
2022/08/17 00:47:33;;;;;;;0.50;0.20;;;;;;;16.87;100.00;99493.09;7393451;19;20021;-79
2022/08/17 00:49:59;;;;;;;0.10;0.10;;;;;;;16.85;100.00;99490.06;7396957;19;20363;-79
2022/08/17 00:52:34;;;;;;;4.10;0.20;;;;;;;16.85;100.00;99490.06;7394302;19;20015;-79
2022/08/17 00:55:02;;;;;;;0.57;0.32;;;;;;;16.83;100.00;99492.63;7393668;19;20312;-79
2022/08/17 00:57:32;;;;;;;0.05;0.00;;;;;;;16.79;100.00;99498.53;7394357;19;20014;-79
2022/08/17 01:00:08;;;;;;;0.20;0.10;;;;;;;16.80;100.00;99502.09;7396495;19;20073;-80
2022/08/17 01:02:39;;;;;;;0.10;0.10;;;;;;;16.79;100.00;99506.19;7392705;19;20094;-79
2022/08/17 01:05:07;;;;;;;0.45;0.10;;;;;;;16.80;100.00;99513.38;7394059;19;20018;-80
2022/08/17 01:07:33;;;;;;;1.55;0.20;;;;;;;16.78;100.00;99515.94;7391149;19;20026;-79
2022/08/17 01:10:02;;;;;;;0.20;0.10;;;;;;;16.76;100.00;99512.91;7395843;19;20370;-79
2022/08/17 01:12:30;;;;;;;0.35;0.10;;;;;;;16.78;100.00;99516.72;7391061;19;20018;-80
2022/08/17 01:14:56;;;;;;;0.10;0.10;;;;;;;16.77;100.00;99509.53;7391141;19;20388;-79
2022/08/17 01:17:22;;;;;;;0.10;0.10;;;;;;;16.77;100.00;99514.41;7390723;19;20025;-79
2022/08/17 01:19:49;;;;;;;0.22;0.10;;;;;;;16.78;100.00;99516.72;7397212;19;20042;-79
2022/08/17 01:22:18;;;;;;;0.20;0.20;;;;;;;16.73;100.00;99519.56;7391839;19;20022;-80
2022/08/17 01:24:49;;;;;;;0.10;0.00;;;;;;;16.74;100.00;99516.22;7391635;19;20015;-80
2022/08/17 01:27:16;;;;;;;0.10;0.00;;;;;;;16.74;100.00;99509.84;7394533;19;20040;-80
2022/08/17 01:29:47;;;;;;;0.10;0.00;;;;;;;16.76;100.00;99507.28;7395294;19;20029;-80
2022/08/17 01:32:13;;;;;;;;;;;;;;;16.76;100.00;99512.91;7393568;19;20025;-80
2022/08/17 01:34:40;;;;;;;0.10;0.10;;;;;;;16.72;100.00;99523.69;7392497;19;19911;-80
2022/08/17 01:37:06;;;;;;;0.10;0.00;;;;;;;16.70;100.00;99517.81;7393146;19;20048;-80
2022/08/17 01:39:37;;;;;;;0.10;0.00;;;;;;;16.68;100.00;99507.84;7393999;19;20035;-80
2022/08/17 01:42:21;;;;;;;1.27;0.20;;;;;;;16.65;100.00;99522.19;7390272;19;20022;-80
2022/08/17 01:44:51;;;;;;;0.10;0.00;;;;;;;16.64;100.00;99527.06;7392480;19;20504;-79
2022/08/17 01:47:18;;;;;;;0.10;0.10;;;;;;;16.63;100.00;99521.97;7391069;19;20012;-80
2022/08/17 01:49:44;;;;;;;1.85;0.20;;;;;;;16.63;100.00;99522.72;7395602;19;20477;-80
2022/08/17 01:52:11;;;;;;;0.95;0.10;;;;;;;16.62;100.00;99515.56;7389549;19;20047;-80
2022/08/17 01:54:40;;;;;;;0.10;0.10;;;;;;;16.61;100.00;99518.91;7390548;19;20393;-80
2022/08/17 01:57:07;;;;;;;0.55;0.10;;;;;;;16.58;100.00;99515.09;7394671;19;20473;-80
2022/08/17 01:59:33;;;;;;;0.10;0.10;;;;;;;16.53;100.00;99513.09;7393117;19;20014;-80
2022/08/17 02:02:00;;;;;;;0.40;0.20;;;;;;;16.55;100.00;99523.81;7387267;19;20010;-80
2022/08/17 02:04:26;;;;;;;0.32;0.17;;;;;;;16.56;100.00;99531.75;7388342;19;20022;-81
2022/08/17 02:06:52;;;;;;;0.10;0.00;;;;;;;16.53;100.00;99532.00;7389895;19;20346;-81
2022/08/17 02:09:20;;;;;;;0.00;0.00;;;;;;;16.51;100.00;99532.53;7395022;19;20365;-81
2022/08/17 02:11:46;;;;;;;0.10;0.00;;;;;;;16.50;100.00;99533.06;7390202;19;20006;-81
2022/08/17 02:14:12;;;;;;;0.25;0.20;;;;;;;16.48;100.00;99538.44;7391288;19;20010;-80
2022/08/17 02:16:39;;;;;;;0.20;0.10;;;;;;;16.46;100.00;99541.75;7389383;19;20018;-80
2022/08/17 02:19:10;;;;;;;0.10;0.10;;;;;;;16.47;100.00;99542.50;7391609;19;20014;-80
2022/08/17 02:21:37;;;;;;;0.10;0.00;;;;;;;16.45;100.00;99545.09;7390266;19;20019;-79
2022/08/17 02:24:07;;;;;;;0.20;0.10;;;;;;;16.43;100.00;99544.84;7389767;19;20014;-80
2022/08/17 02:26:33;;;;;;;0.47;0.10;;;;;;;16.41;100.00;99550.22;7392883;19;20011;-80
2022/08/17 02:29:00;;;;;;;0.55;0.15;;;;;;;16.41;100.00;99541.81;7392449;19;20014;-80
2022/08/17 02:31:26;;;;;;;0.98;0.10;;;;;;;16.42;100.00;99560.94;7389012;19;20015;-79
2022/08/17 02:33:52;;;;;;;0.10;0.03;;;;;;;16.40;100.00;99555.09;7390380;19;20010;-80
2022/08/17 02:36:18;;;;;;;0.73;0.20;;;;;;;16.41;100.00;99556.63;7389356;19;20039;-80
2022/08/17 02:38:44;;;;;;;0.10;0.00;;;;;;;16.37;100.00;99553.31;7392146;19;20078;-80
2022/08/17 02:41:11;;;;;;;0.10;0.10;;;;;;;16.35;100.00;99553.06;7388634;19;20015;-80
2022/08/17 02:43:37;;;;;;;1.38;0.40;;;;;;;16.38;100.00;99551.25;7388921;19;20334;-80
2022/08/17 02:46:04;;;;;;;0.15;0.15;;;;;;;16.38;100.00;99543.59;7389985;19;20014;-80
2022/08/17 02:48:30;;;;;;;0.65;0.40;;;;;;;16.39;100.00;99553.56;7389495;19;20026;-80
2022/08/17 02:50:56;;;;;;;2.55;0.22;;;;;;;16.40;100.00;99548.69;7389812;19;20502;-80
2022/08/17 02:53:22;;;;;;;0.90;0.17;;;;;;;16.42;100.00;99557.38;7390283;19;20489;-80
2022/08/17 02:55:49;;;;;;;0.47;0.10;;;;;;;16.42;100.00;99551.75;7390071;19;20034;-80
2022/08/17 02:58:17;;;;;;;0.10;0.00;;;;;;;16.41;100.00;99544.59;7390436;19;20014;-80
2022/08/17 03:00:47;;;;;;;0.10;0.10;;;;;;;16.43;100.00;99551.25;7388173;19;21050;-80
2022/08/17 03:03:17;;;;;;;0.10;0.10;;;;;;;16.43;100.00;99547.66;7389032;19;20078;-80
2022/08/17 03:05:46;;;;;;;2.15;0.05;;;;;;;16.46;100.00;99564.22;7388506;19;20022;-80
2022/08/17 03:08:13;;;;;;;4.65;0.60;;;;;;;16.46;100.00;99555.78;7388632;19;20473;-80
2022/08/17 03:10:41;;;;;;;0.10;0.00;;;;;;;16.47;100.00;99559.38;7386301;19;20380;-80
2022/08/17 03:13:07;;;;;;;1.48;0.30;;;;;;;16.49;100.00;99556.81;7387983;19;20015;-79
2022/08/17 03:15:34;;;;;;;0.65;0.28;;;;;;;16.51;100.00;99551.44;7386579;19;20014;-80
2022/08/17 03:18:01;;;;;;;0.10;0.10;;;;;;;16.50;100.00;99556.31;7390171;19;20345;-80
2022/08/17 03:20:29;;;;;;;0.10;0.00;;;;;;;16.47;100.00;99560.16;7388344;19;20070;-80
2022/08/17 03:22:58;;;;;;;0.95;0.40;;;;;;;16.49;100.00;99551.19;7389009;19;20043;-80
2022/08/17 03:25:27;;;;;;;0.13;0.13;;;;;;;16.49;100.00;99563.19;7388993;19;20495;-80
2022/08/17 03:27:53;;;;;;;2.78;0.65;;;;;;;16.48;100.00;99572.16;7389304;19;20014;-79
2022/08/17 03:30:21;;;;;;;1.13;0.30;;;;;;;16.48;100.00;99560.91;7390017;19;20054;-80
2022/08/17 03:32:49;;;;;;;0.15;0.10;;;;;;;16.45;100.00;99562.72;7390606;19;20006;-79
2022/08/17 03:35:19;;;;;;;0.10;0.10;;;;;;;16.41;100.00;99544.59;7388115;19;20014;-80
2022/08/17 03:37:46;;;;;;;1.17;0.20;;;;;;;16.41;100.00;99544.59;7390770;19;20365;-80
2022/08/17 03:40:12;;;;;;;0.40;0.17;;;;;;;16.38;100.00;99554.84;7387014;19;20667;-80
2022/08/17 03:42:39;;;;;;;1.00;0.20;;;;;;;16.34;100.00;99545.94;7387962;19;20040;-80
2022/08/17 03:45:11;;;;;;;1.00;0.40;;;;;;;16.36;100.00;99554.59;7389964;19;20487;-80
2022/08/17 03:58:45;;;;;;;2.83;0.68;;;;;;;16.28;100.00;99570.50;7391039;19;20029;-80
2022/08/17 04:01:12;;;;;;;0.77;0.30;;;;;;;16.29;100.00;99560.78;7391740;19;20018;-80
2022/08/17 04:03:38;;;;;;;0.30;0.10;;;;;;;16.29;100.00;99560.78;7397064;19;20014;-80
2022/08/17 04:06:05;;;;;;;1.67;0.40;;;;;;;16.27;100.00;99574.59;7394453;19;20484;-80
2022/08/17 04:08:31;;;;;;;2.97;0.73;;;;;;;16.26;100.00;99564.66;7396748;19;20014;-80
2022/08/17 04:10:59;;;;;;;1.58;0.50;;;;;;;16.26;100.00;99566.69;7392611;19;20010;-80
2022/08/17 04:13:26;;;;;;;1.38;0.10;;;;;;;16.25;100.00;99571.56;7395625;19;20056;-80
2022/08/17 04:15:53;;;;;;;2.00;0.52;;;;;;;16.27;100.00;99574.59;7393934;19;20094;-80
2022/08/17 04:18:19;;;;;;;0.90;0.13;;;;;;;16.25;100.00;99571.56;7396483;19;20277;-80
2022/08/17 04:20:45;;;;;;;0.32;0.20;;;;;;;16.25;100.00;99576.41;7392845;19;20066;-80
2022/08/17 04:23:15;;;;;;;1.10;0.38;;;;;;;16.27;100.00;99580.22;7394173;19;20026;-80
2022/08/17 04:25:47;;;;;;;0.28;0.13;;;;;;;16.26;100.00;99569.50;7394074;19;20006;-80
2022/08/17 04:28:15;;;;;;;1.40;0.40;;;;;;;16.25;100.00;99577.16;7393696;19;20011;-80
2022/08/17 04:30:43;;;;;;;0.52;0.28;;;;;;;16.23;100.00;99576.94;7393629;19;20018;-80
2022/08/17 04:33:25;;;;;;;0.50;0.10;;;;;;;16.22;100.00;99586.63;7393691;19;20010;-80
2022/08/17 04:35:54;;;;;;;1.23;0.40;;;;;;;16.21;100.00;99576.69;7392777;19;20006;-80
2022/08/17 04:38:30;;;;;;;2.00;0.50;;;;;;;16.20;100.00;99586.38;7396753;19;20019;-79
2022/08/17 04:43:44;;;;;;;1.15;0.40;;;;;;;16.20;100.00;99591.28;7393835;19;20031;-79
2022/08/17 04:46:13;;;;;;;0.20;0.20;;;;;;;16.18;100.00;99599.44;7393345;19;20022;-80
2022/08/17 04:48:42;;;;;;;0.25;0.20;;;;;;;16.16;100.00;99591.53;7396489;19;20021;-80
2022/08/17 04:51:18;;;;;;;2.30;0.43;;;;;;;16.16;100.00;99602.75;7392158;19;20018;-79
2022/08/17 04:53:46;;;;;;;0.75;0.25;;;;;;;16.16;100.00;99597.16;7395446;19;20018;-80
2022/08/17 04:56:14;;;;;;;4.45;0.45;;;;;;;16.17;100.00;99598.69;7393758;19;20029;-80
2022/08/17 04:58:42;;;;;;;0.10;0.08;;;;;;;16.18;100.00;99600.19;7395596;19;20480;-80
2022/08/17 05:01:08;;;;;;;0.57;0.13;;;;;;;16.17;100.00;99593.06;7392871;19;20544;-80
2022/08/17 05:03:35;;;;;;;0.43;0.35;;;;;;;16.18;100.00;99605.81;7392095;19;20019;-80
2022/08/17 05:06:01;;;;;;;0.10;0.10;;;;;;;16.17;100.00;99601.50;7393468;19;20089;-80
2022/08/17 05:08:27;;;;;;;0.88;0.60;;;;;;;16.17;100.00;99604.31;7395807;19;20489;-80
2022/08/17 05:10:53;;;;;;;1.00;0.20;;;;;;;16.15;100.00;99601.25;7390636;19;20367;-80
2022/08/17 05:13:23;;;;;;;3.30;0.30;;;;;;;16.17;100.00;99606.34;7393778;19;20487;-80
2022/08/17 05:15:53;;;;;;;1.48;0.57;;;;;;;16.18;100.00;99600.19;7392166;19;20026;-80
2022/08/17 05:18:20;;;;;;;0.30;0.30;;;;;;;16.17;100.00;99609.94;7392489;19;20039;-80
2022/08/17 05:20:47;;;;;;;1.58;0.30;;;;;;;16.18;100.00;99614.25;7390837;19;20014;-80
2022/08/17 05:23:15;;;;;;;3.13;0.43;;;;;;;16.16;100.00;99607.63;7392120;19;20027;-80
2022/08/17 05:25:48;;;;;;;0.10;0.10;;;;;;;16.17;100.00;99609.16;7393163;19;20047;-80
2022/08/17 05:28:16;;;;;;;0.70;0.22;;;;;;;16.17;100.00;99615.53;7391384;19;20491;-81
2022/08/17 05:30:43;;;;;;;2.47;0.45;;;;;;;16.20;100.00;99614.47;7392753;19;20432;-81
2022/08/17 05:33:13;;;;;;;0.52;0.50;;;;;;;16.19;100.00;99618.59;7392622;19;20014;-80
2022/08/17 05:35:43;;;;;;;0.20;0.10;;;;;;;16.18;100.00;99614.25;7389832;19;20498;-80
2022/08/17 05:38:09;;;;;;;0.38;0.30;;;;;;;16.22;100.00;99617.53;7395682;19;20271;-80
2022/08/17 05:40:37;;;;;;;0.65;0.30;;;;;;;16.25;100.00;99621.34;7391432;19;20025;-81
2022/08/17 05:43:10;;;;;;;0.13;0.05;;;;;;;16.25;100.00;99608.06;7390213;19;20038;-80
2022/08/17 05:45:48;;;;;;;1.55;0.35;;;;;;;16.25;100.00;99622.13;7390064;19;20021;-80
2022/08/17 05:48:14;;;;;;;1.23;0.28;;;;;;;16.30;100.00;99629.00;7391755;19;20059;-80
2022/08/17 05:50:50;;;;;;;0.10;0.10;;;;;;;16.32;100.00;99630.00;7390167;19;20023;-80
2022/08/17 05:53:23;;;;;;;1.45;0.32;;;;;;;16.35;100.00;99631.75;7395174;19;20014;-79
2022/08/17 05:56:01;;;;;;;0.25;0.10;;;;;;;16.38;100.00;99636.34;7389442;19;20369;-80
2022/08/17 05:58:44;;;;;;;0.30;0.22;;;;;;;16.40;100.00;99644.25;7391097;19;20018;-78
2022/08/17 06:01:10;;;;;;;0.30;0.10;;;;;;;16.41;100.00;99643.75;7390011;19;20026;-81
2022/08/17 06:03:46;;;;;;;0.10;0.00;;;;;;;16.41;100.00;99640.19;7390202;19;20018;-81
2022/08/17 06:06:34;;;;;;;0.10;0.00;;;;;;;16.39;100.00;99649.13;7390448;19;20027;-81
2022/08/17 06:09:06;;;;;;;0.30;0.10;;;;;;;16.35;100.00;99643.00;7392686;19;20014;-81
2022/08/17 06:11:50;;;;;;;0.20;0.10;;;;;;;16.34;100.00;99658.34;7388653;19;20330;-81
2022/08/17 06:14:38;;;;;;;0.30;0.10;;;;;;;16.38;100.00;99652.44;7390105;19;20037;-80
2022/08/17 06:17:10;;;;;;;0.10;0.10;;;;;;;16.40;100.00;99653.47;7391043;19;20022;-81
2022/08/17 06:19:46;;;;;;;1.52;0.50;;;;;;;16.42;100.00;99650.13;7393795;19;20384;-80
2022/08/17 06:22:15;;;;;;;0.10;0.10;;;;;;;16.45;100.00;99661.09;7387133;19;20018;-81
2022/08/17 06:24:48;;;;;;;0.43;0.10;;;;;;;16.43;100.00;99652.44;7391635;19;20011;-81
2022/08/17 06:27:25;;;;;;;0.10;0.10;;;;;;;16.42;100.00;99653.69;7395932;19;20022;-81
2022/08/17 06:30:00;;;;;;;0.70;0.20;;;;;;;16.38;100.00;99644.00;7394817;19;20094;-82
2022/08/17 06:32:27;;;;;;;0.73;0.13;;;;;;;16.35;100.00;99648.63;7391938;19;20015;-80
2022/08/17 06:34:54;;;;;;;0.88;0.10;;;;;;;16.34;100.00;99660.41;7391650;19;20015;-82
2022/08/17 06:38:03;;;;;;;0.75;0.10;;;;;;;16.30;100.00;99657.88;7391336;19;20011;-82
2022/08/17 06:41:07;;;;;;;5.72;0.75;;;;;;;16.28;100.00;99676.53;7387172;19;20018;-82
2022/08/17 06:44:11;;;;;;;0.30;0.15;;;;;;;16.23;100.00;99669.66;7385756;19;20050;-82
2022/08/17 06:46:43;;;;;;;1.20;0.43;;;;;;;16.26;100.00;99679.88;7386472;19;20030;-82
2022/08/17 06:49:12;;;;;;;2.78;0.52;;;;;;;16.34;100.00;99689.28;7391525;19;20014;-82
2022/08/17 06:51:45;;;;;;;0.30;0.25;;;;;;;16.34;100.00;99675.22;7388279;19;20070;-82
2022/08/17 06:54:24;;;;;;;5.35;0.50;;;;;;;16.34;100.00;99674.44;7388745;19;20491;-82
2022/08/17 06:56:56;;;;;;;0.20;0.10;;;;;;;16.31;100.00;99664.22;7394275;19;20480;-82
2022/08/17 06:59:27;;;;;;;2.13;0.77;;;;;;;16.34;100.00;99669.59;7392434;19;20022;-82
2022/08/17 07:01:55;;;;;;;7.15;0.60;;;;;;;16.38;100.00;99672.13;7389631;19;20018;-83
2022/08/17 07:04:27;;;;;;;0.40;0.20;;;;;;;16.40;100.00;99673.13;7388557;19;20074;-82
2022/08/17 07:08:00;;;;;;;1.70;0.20;;;;;;;16.42;100.00;99681.81;7390352;19;20018;-81
2022/08/17 07:09:48;;;;;;;1.23;0.20;;;;;;;16.50;100.00;99680.00;7390351;19;20041;-81
2022/08/17 07:12:18;;;;;;;0.43;0.10;;;;;;;16.52;100.00;99688.66;7388586;19;20019;-82
2022/08/17 07:15:11;;;;;;;0.10;0.00;;;;;;;16.57;100.00;99687.88;7390925;19;20021;-81
2022/08/17 07:17:39;;;;;;;0.85;0.38;;;;;;;16.60;100.00;99672.78;7390105;19;20072;-82
2022/08/17 07:20:11;;;;;;;0.75;0.20;;;;;;;16.58;100.00;99688.66;7392053;19;20038;-82
2022/08/17 07:22:53;;;;;;;1.83;0.47;;;;;;;16.60;100.00;99686.84;7389385;19;20015;-82
2022/08/17 07:25:20;;;;;;;0.30;0.10;;;;;;;16.60;100.00;99684.03;7389999;19;20480;-81
2022/08/17 07:27:58;;;;;;;0.43;0.43;;;;;;;16.63;100.00;99690.66;7387228;19;20010;-81
2022/08/17 07:30:24;;;;;;;0.73;0.45;;;;;;;16.65;100.00;99694.47;7387855;19;20026;-81
2022/08/17 07:32:57;;;;;;;0.60;0.30;;;;;;;16.68;100.00;99701.09;7390789;19;20022;-81
2022/08/17 07:35:40;;;;;;;1.70;0.93;;;;;;;16.67;100.00;99694.72;7396136;19;20015;-81
2022/08/17 07:38:27;;;;;;;1.08;0.38;;;;;;;16.66;100.00;99701.63;7398627;19;20007;-84
2022/08/17 07:40:56;;;;;;;1.35;0.30;;;;;;;16.67;100.00;99697.50;7395951;19;20022;-82
2022/08/17 07:43:28;;;;;;;3.72;0.50;;;;;;;16.70;100.00;99701.34;7394839;19;20472;-82
2022/08/17 07:49:02;;;;;;;1.13;0.45;;;;;;;16.74;100.00;99715.13;7398576;19;20010;-83
2022/08/17 07:51:42;;;;;;;1.17;0.20;;;;;;;16.72;100.00;99720.53;7393529;19;20010;-82
2022/08/17 07:54:11;;;;;;;0.52;0.20;;;;;;;16.72;100.00;99715.63;7395322;19;20035;-83
2022/08/17 07:56:42;;;;;;;1.98;0.52;;;;;;;16.76;100.00;99740.69;7395247;19;20014;-82
2022/08/17 07:59:15;;;;;;;1.90;0.47;;;;;;;16.80;100.00;99732.72;7398943;19;20085;-85
2022/08/17 08:01:46;;;;;;;0.60;0.15;;;;;;;16.87;100.00;99735.00;7394578;19;20028;-80
2022/08/17 08:04:30;;;;;;;7.82;1.00;;;;;;;16.98;100.00;99732.84;7393043;19;20026;-80
2022/08/17 08:07:00;;;;;;;7.00;0.85;;;;;;;17.05;100.00;99739.97;7395459;19;20046;-80
2022/08/17 08:09:41;;;;;;;0.50;0.40;;;;;;;17.08;100.00;99734.06;7397974;19;20092;-80
2022/08/17 08:12:53;;;;;;;0.57;0.20;;;;;;;17.11;100.00;99735.06;7393156;19;20398;-79
2022/08/17 08:15:32;;;;;;;0.30;0.30;;;;;;;17.18;100.00;99745.75;7390410;19;20034;-78
2022/08/17 08:18:01;;;;;;;2.05;0.40;;;;;;;17.23;100.00;99747.75;7392959;19;20021;-83
2022/08/17 08:20:37;;;;;;;0.40;0.20;;;;;;;17.21;100.00;99750.34;7393949;19;20055;-79
2022/08/17 08:23:41;;;;;;;0.55;0.13;;;;;;;17.19;100.00;99762.13;7395275;19;20021;-80
2022/08/17 08:26:17;;;;;;;3.80;0.93;;;;;;;17.22;100.00;99768.75;7395994;19;20326;-81
2022/08/17 08:29:07;;;;;;;0.85;0.55;;;;;;;17.33;100.00;99763.03;7394932;19;20026;-83
2022/08/17 08:32:05;;;;;;;0.57;0.20;;;;;;;17.40;100.00;99770.91;7391753;19;20014;-81
2022/08/17 08:34:57;;;;;;;0.20;0.08;;;;;;;17.34;100.00;99770.19;7394808;19;20018;-80
2022/08/17 08:37:50;;;;;;;4.97;0.55;;;;;;;17.36;100.00;99785.28;7393868;19;20013;-80
2022/08/17 08:40:47;;;;;;;0.10;0.10;;;;;;;17.49;100.00;99779.03;7391743;19;20025;-81
2022/08/17 08:43:42;;;;;;;4.25;1.17;;;;;;;17.56;100.00;99786.16;7394205;19;20107;-80
2022/08/17 08:46:20;;;;;;;2.58;0.22;;;;;;;17.70;100.00;99790.63;7392850;19;20011;-80
2022/08/17 08:49:08;;;;;;;0.47;0.28;;;;;;;17.73;100.00;99787.53;7394180;19;20792;-81
2022/08/17 08:51:57;;;;;;;1.13;0.20;;;;;;;17.74;100.00;99796.75;7392815;19;20480;-81
2022/08/17 08:54:42;;;;;;;1.05;0.40;;;;;;;17.71;100.00;99795.75;7392666;19;20085;-82
2022/08/17 08:57:17;;;;;;;0.45;0.20;;;;;;;17.56;100.00;99806.66;7395337;19;20107;-81
2022/08/17 09:00:13;;;;;;;0.68;0.30;;;;;;;17.46;100.00;99808.22;7397231;19;20346;-82
2022/08/17 09:02:45;;;;;;;3.17;0.82;;;;;;;17.48;100.00;99814.09;7392485;19;20002;-81
2022/08/17 09:05:12;;;;;;;1.80;0.57;;;;;;;17.47;100.00;99818.22;7392938;19;20498;-81
2022/08/17 09:07:57;;;;;;;0.22;0.15;;;;;;;17.45;100.00;99812.34;7393587;19;20010;-80
2022/08/17 09:10:30;;;;;;;1.98;0.73;;;;;;;17.46;100.00;99811.03;7394040;19;20329;-80
2022/08/17 09:13:07;;;;;;;7.00;1.77;;;;;;;17.48;100.00;99816.91;7394217;19;20029;-80
2022/08/17 09:15:41;;;;;;;2.92;0.28;;;;;;;17.48;100.00;99811.28;7391674;19;20039;-80
2022/08/17 09:18:29;;;;;;;0.43;0.35;;;;;;;17.51;100.00;99806.69;7394408;19;20014;-80
2022/08/17 09:21:00;;;;;;;1.52;0.30;;;;;;;17.52;100.00;99820.22;7391128;19;20040;-80
2022/08/17 09:23:41;;;;;;;4.53;0.82;;;;;;;17.54;100.00;99819.72;7391416;19;20064;-81
2022/08/17 09:26:21;;;;;;;0.43;0.40;;;;;;;17.55;100.00;99821.22;7392816;19;20014;-80
2022/08/17 09:29:00;;;;;;;0.68;0.10;;;;;;;17.57;100.00;99827.88;7394511;19;20751;-80
2022/08/17 09:31:35;;;;;;;3.60;0.52;;;;;;;17.61;100.00;99831.16;7389499;19;20024;-81
2022/08/17 09:34:09;;;;;;;2.15;0.30;;;;;;;17.66;100.00;99833.19;7390335;19;20010;-80
2022/08/17 09:36:46;;;;;;;0.90;0.20;;;;;;;17.82;100.00;99820.97;7390315;19;20018;-80
2022/08/17 09:39:23;;;;;;;0.10;0.10;;;;;;;17.92;100.00;99836.28;7396122;19;20018;-80
2022/08/17 09:42:04;;;;;;;0.22;0.20;;;;;;;18.04;100.00;99817.94;7388503;19;20019;-81
2022/08/17 09:44:39;;;;;;;1.08;0.32;;;;;;;18.07;100.00;99816.91;7390672;19;20022;-80
2022/08/17 09:47:29;;;;;;;1.38;0.47;;;;;;;18.32;100.00;99826.09;7392953;19;20019;-81
2022/08/17 09:50:02;;;;;;;0.52;0.20;;;;;;;18.46;100.00;99824.97;7390937;19;20389;-80
2022/08/17 09:52:30;;;;;;;0.65;0.30;;;;;;;18.69;100.00;99822.66;7391332;19;20018;-81
2022/08/17 09:54:58;;;;;;;0.08;0.03;;;;;;;18.74;100.00;99813.31;7389019;19;20018;-79
2022/08/17 09:57:46;;;;;;;0.35;0.30;;;;;;;18.88;100.00;99817.78;7393227;19;20427;-80
2022/08/17 10:00:15;;;;;;;1.33;0.25;;;;;;;19.04;100.00;99807.53;7389881;19;20052;-80
2022/08/17 10:03:15;;;;;;;2.85;0.63;;;;;;;19.17;100.00;99805.53;7396527;19;20013;-79
2022/08/17 10:05:50;;;;;;;4.57;0.30;;;;;;;19.32;100.00;99800.16;7396258;19;20021;-80
2022/08/17 10:08:48;;;;;;;0.35;0.28;;;;;;;19.34;100.00;99808.88;7395094;19;20014;-79
2022/08/17 10:11:18;;;;;;;3.00;0.30;;;;;;;19.39;100.00;99805.22;7391647;19;20457;-80
2022/08/17 10:13:47;;;;;;;0.77;0.17;;;;;;;19.39;100.00;99793.91;7394716;19;20378;-80
2022/08/17 10:16:21;;;;;;;2.90;0.52;;;;;;;19.30;100.00;99802.00;7391841;19;20010;-80
2022/08/17 10:19:21;;;;;;;0.77;0.22;;;;;;;19.23;100.00;99809.03;7392972;19;20011;-79
2022/08/17 10:27:51;;;;;;;1.65;0.30;;;;;;;18.88;100.00;99829.06;7395761;19;20022;-78
2022/08/17 10:30:22;;;;;;;2.45;0.70;;;;;;;18.85;100.00;99830.13;7389119;19;20599;-78
2022/08/17 10:33:04;;;;;;;0.88;0.17;;;;;;;18.75;100.00;99820.50;7390282;19;20018;-78
2022/08/17 10:35:40;;;;;;;12.55;0.30;;;;;;;18.71;100.00;99836.97;7388925;19;20018;-79
2022/08/17 10:38:40;;;;;;;0.20;0.20;;;;;;;18.67;100.00;99836.50;7393362;19;20018;-78
2022/08/17 10:41:22;;;;;;;1.50;0.28;;;;;;;18.58;100.00;99839.69;7387145;19;20025;-79
2022/08/17 10:44:17;;;;;;;0.45;0.17;;;;;;;18.46;100.00;99843.94;7388972;19;20026;-78
2022/08/17 10:47:05;;;;;;;8.80;0.25;;;;;;;18.40;100.00;99849.63;7390458;19;20015;-78
2022/08/17 10:49:35;;;;;;;4.80;0.55;;;;;;;18.40;100.00;99857.31;7392440;19;20345;-78
2022/08/17 10:52:18;;;;;;;0.20;0.08;;;;;;;18.38;100.00;99848.63;7388249;19;20664;-79
2022/08/17 10:54:46;;;;;;;0.30;0.10;;;;;;;18.40;100.00;99834.75;7389050;19;20021;-79
2022/08/17 10:57:36;;;;;;;0.43;0.13;;;;;;;18.52;100.00;99847.44;7394647;19;20006;-79
2022/08/17 11:00:33;;;;;;;0.30;0.25;;;;;;;18.65;100.00;99844.72;7393616;19;20101;-79
2022/08/17 11:03:00;;;;;;;1.00;0.40;;;;;;;18.70;100.00;99852.38;7386991;19;20070;-79
2022/08/17 11:05:43;;;;;;;1.23;0.32;;;;;;;18.69;100.00;99860.06;7390735;19;20015;-79
2022/08/17 11:08:29;;;;;;;1.88;0.45;;;;;;;18.65;100.00;99864.47;7390065;19;20027;-79
2022/08/17 11:11:25;;;;;;;3.53;0.57;;;;;;;18.60;100.00;99873.78;7394973;19;20019;-78
2022/08/17 11:14:29;;;;;;;0.35;0.17;;;;;;;18.48;100.00;99869.53;7396168;19;20038;-79
2022/08/17 11:17:08;;;;;;;1.30;0.30;;;;;;;18.51;100.00;99879.78;7398362;19;20471;-78
2022/08/17 11:19:52;;;;;;;3.13;0.20;;;;;;;18.50;100.00;99879.00;7396330;19;20010;-79
2022/08/17 11:22:32;;;;;;;4.50;0.20;;;;;;;18.46;100.00;99883.41;7398258;19;20022;-81
2022/08/17 11:25:11;;;;;;;3.03;1.00;;;;;;;18.46;100.00;99883.41;7397747;19;20018;-79
2022/08/17 11:27:38;;;;;;;0.20;0.10;;;;;;;18.56;100.00;99878.97;7397354;19;20015;-79
2022/08/17 11:30:12;;;;;;;2.28;0.20;;;;;;;18.66;100.00;99885.75;7399890;19;20018;-79
2022/08/17 11:32:48;;;;;;;1.23;0.38;;;;;;;18.75;100.00;99879.75;7399996;19;20014;-79
2022/08/17 11:35:21;;;;;;;8.63;0.63;;;;;;;18.85;100.00;99884.50;7392876;19;20018;-79
2022/08/17 11:38:23;;;;;;;0.75;0.20;;;;;;;19.05;100.00;99879.63;7396001;19;20556;-79
2022/08/17 11:41:08;;;;;;;5.00;0.30;;;;;;;19.15;100.00;99883.59;7394419;19;20018;-78
2022/08/17 11:43:54;;;;;;;1.20;0.45;;;;;;;19.23;100.00;99896.56;7395506;19;20014;-79
2022/08/17 11:52:45;;;;;;;0.75;0.45;;;;;;;19.34;100.00;99887.19;7395765;19;20025;-81
2022/08/17 11:55:27;;;;;;;0.88;0.20;;;;;;;19.46;100.00;99882.91;7394952;19;20010;-79
2022/08/17 11:57:58;;;;;;;3.83;0.40;;;;;;;19.61;100.00;99883.97;7395896;19;20464;-79
2022/08/17 12:00:48;;;;;;;0.22;0.20;;;;;;;19.80;100.00;99886.75;7393803;19;20443;-78
2022/08/17 12:03:22;;;;;;;1.95;0.10;;;;;;;19.93;100.00;99883.97;7393525;19;20589;-81
2022/08/17 12:05:52;;;;;;;1.23;0.22;;;;;;;20.01;100.00;99882.00;7392105;19;20578;-81
2022/08/17 12:08:20;;;;;;;3.53;0.10;;;;;;;20.10;100.00;99889.31;7390082;19;20504;-80
2022/08/17 12:11:09;;;;;;;3.60;0.40;;;;;;;20.15;100.00;99877.16;7388007;19;20018;-80
2022/08/17 12:13:50;;;;;;;4.50;0.15;;;;;;;20.20;100.00;99884.78;7393140;19;20349;-81
2022/08/17 12:16:18;;;;;;;0.10;0.00;;;;;;;20.35;100.00;99876.56;7390530;19;20081;-80
2022/08/17 12:18:49;;;;;;;0.57;0.10;;;;;;;20.51;100.00;99877.56;7394481;19;20014;-79
2022/08/17 12:21:21;;;;;;;1.05;0.17;;;;;;;20.67;100.00;99885.72;7390543;19;20098;-79
2022/08/17 12:24:27;;;;;;;0.77;0.30;;;;;;;20.67;100.00;99885.72;7394617;19;20484;-80